createdAt,value
2023-04-10T00:01:07.286Z,8
2023-04-10T00:02:21.503Z,8
2023-04-10T00:04:49.887Z,8
2023-04-10T00:06:03.928Z,9
2023-04-10T00:07:17.971Z,9
2023-04-10T00:09:46.314Z,9
2023-04-10T00:11:00.344Z,8
2023-04-10T00:12:14.463Z,9
2023-04-10T00:14:42.746Z,8
2023-04-10T00:15:56.898Z,8
2023-04-10T00:17:11.001Z,8
2023-04-10T00:19:39.310Z,9
2023-04-10T00:20:53.610Z,8
2023-04-10T00:22:07.597Z,8
2023-04-10T00:23:21.655Z,8
2023-04-10T00:25:50.033Z,9
2023-04-10T00:27:04.153Z,9
2023-04-10T00:28:18.283Z,9
2023-04-10T00:30:46.513Z,9
2023-04-10T00:32:00.636Z,8
2023-04-10T00:33:14.738Z,9
2023-04-10T00:35:43.061Z,9
2023-04-10T00:36:57.510Z,9
2023-04-10T00:38:11.274Z,9
2023-04-10T00:40:39.652Z,8
2023-04-10T00:41:53.788Z,9
2023-04-10T00:43:07.841Z,9
2023-04-10T00:44:21.951Z,9
2023-04-10T00:46:50.213Z,9
2023-04-10T00:48:04.424Z,9
2023-04-10T00:49:18.530Z,9
2023-04-10T00:51:46.754Z,9
2023-04-10T00:53:00.887Z,9
2023-04-10T00:54:14.998Z,9
2023-04-10T00:56:43.298Z,9
2023-04-10T00:57:57.462Z,9
2023-04-10T00:59:11.541Z,8
2023-04-10T01:01:39.891Z,9
2023-04-10T01:02:54.219Z,9
2023-04-10T01:04:08.252Z,8
2023-04-10T01:05:22.224Z,9
2023-04-10T01:07:50.487Z,9
2023-04-10T01:09:04.662Z,9
2023-04-10T01:10:18.824Z,9
2023-04-10T01:12:47.068Z,9
2023-04-10T01:14:01.162Z,8
2023-04-10T01:15:15.294Z,8
2023-04-10T01:17:43.821Z,8
2023-04-10T01:18:57.754Z,8
2023-04-10T01:20:11.807Z,9
2023-04-10T01:22:40.181Z,8
2023-04-10T01:23:54.624Z,9
2023-04-10T01:25:08.502Z,9
2023-04-10T01:26:22.491Z,9
2023-04-10T01:28:50.729Z,9
2023-04-10T01:30:04.895Z,8
2023-04-10T01:31:19.093Z,9
2023-04-10T01:33:47.300Z,8
2023-04-10T01:35:01.417Z,8
2023-04-10T01:36:15.574Z,8
2023-04-10T01:38:43.850Z,8
2023-04-10T01:39:58.008Z,8
2023-04-10T01:41:12.120Z,8
2023-04-10T01:43:40.334Z,8
2023-04-10T01:44:54.561Z,8
2023-04-10T01:46:08.635Z,8
2023-04-10T01:47:22.779Z,8
2023-04-10T01:49:51.018Z,8
2023-04-10T01:51:05.191Z,8
2023-04-10T01:52:19.387Z,8
2023-04-10T01:54:47.668Z,8
2023-04-10T01:56:01.717Z,8
2023-04-10T01:57:15.849Z,9
2023-04-10T01:59:44.208Z,8
2023-04-10T02:00:58.245Z,8
2023-04-10T02:02:12.513Z,8
2023-04-10T02:04:40.856Z,8
2023-04-10T02:05:54.794Z,8
2023-04-10T02:07:08.973Z,8
2023-04-10T02:08:23.016Z,8
2023-04-10T02:10:51.327Z,8
2023-04-10T02:12:05.523Z,8
2023-04-10T02:13:19.617Z,8
2023-04-10T02:15:47.951Z,7
2023-04-10T02:17:01.966Z,8
2023-04-10T02:18:16.090Z,8
2023-04-10T02:20:44.358Z,8
2023-04-10T02:21:58.615Z,8
2023-04-10T02:23:12.630Z,8
2023-04-10T02:25:40.870Z,8
2023-04-10T02:26:55.026Z,8
2023-04-10T02:28:09.180Z,8
2023-04-10T02:29:23.292Z,7
2023-04-10T02:31:51.547Z,8
2023-04-10T02:33:05.866Z,8
2023-04-10T02:36:48.154Z,8
2023-04-10T02:38:02.219Z,7
2023-04-10T02:39:16.377Z,7
2023-04-10T02:41:44.727Z,7
2023-04-10T02:42:58.826Z,7
2023-04-10T02:44:12.912Z,8
2023-04-10T02:46:41.313Z,8
2023-04-10T02:47:55.466Z,7
2023-04-10T02:49:09.440Z,7
2023-04-10T02:50:23.560Z,7
2023-04-10T02:52:51.804Z,7
2023-04-10T02:54:06.005Z,8
2023-04-10T02:55:20.081Z,7
2023-04-10T02:57:48.380Z,8
2023-04-10T02:59:02.496Z,7
2023-04-10T03:00:16.615Z,7
2023-04-10T03:02:45.312Z,7
2023-04-10T03:03:59.276Z,7
2023-04-10T03:05:13.134Z,7
2023-04-10T03:07:41.378Z,7
2023-04-10T03:08:55.644Z,8
2023-04-10T03:10:09.684Z,7
2023-04-10T03:11:23.932Z,7
2023-04-10T03:14:00.250Z,7
2023-04-10T03:15:14.391Z,7
2023-04-10T03:17:42.713Z,7
2023-04-10T03:18:56.807Z,7
2023-04-10T03:20:10.919Z,6
2023-04-10T03:21:25.121Z,7
2023-04-10T03:22:39.202Z,7
2023-04-10T03:23:53.654Z,7
2023-04-10T03:25:07.462Z,7
2023-04-10T03:26:21.594Z,7
2023-04-10T03:28:49.870Z,7
2023-04-10T03:30:04.082Z,7
2023-04-10T03:31:18.156Z,7
2023-04-10T03:33:46.489Z,7
2023-04-10T03:35:00.510Z,7
2023-04-10T03:36:14.694Z,7
2023-04-10T03:38:42.953Z,7
2023-04-10T03:39:57.075Z,7
2023-04-10T03:41:11.180Z,7
2023-04-10T03:43:39.662Z,7
2023-04-10T03:44:53.621Z,7
2023-04-10T03:46:07.769Z,7
2023-04-10T03:47:21.900Z,7
2023-04-10T03:49:50.243Z,7
2023-04-10T03:51:04.305Z,7
2023-04-10T03:52:18.482Z,7
2023-04-10T03:54:46.662Z,8
2023-04-10T03:56:00.767Z,7
2023-04-10T03:57:14.924Z,7
2023-04-10T03:59:43.193Z,7
2023-04-10T04:00:57.329Z,8
2023-04-10T04:02:11.543Z,7
2023-04-10T04:04:39.834Z,7
2023-04-10T04:05:53.854Z,8
2023-04-10T04:07:08.095Z,8
2023-04-10T04:08:22.152Z,7
2023-04-10T04:10:50.382Z,8
2023-04-10T04:12:04.588Z,8
2023-04-10T04:13:18.688Z,7
2023-04-10T04:15:46.979Z,8
2023-04-10T04:17:01.109Z,8
2023-04-10T04:18:15.214Z,8
2023-04-10T04:20:43.525Z,8
2023-04-10T04:21:57.618Z,8
2023-04-10T04:23:11.734Z,9
2023-04-10T04:25:40.075Z,8
2023-04-10T04:26:54.216Z,8
2023-04-10T04:28:08.251Z,8
2023-04-10T04:29:22.397Z,8
2023-04-10T04:31:50.708Z,8
2023-04-10T04:33:04.937Z,9
2023-04-10T04:34:19.022Z,8
2023-04-10T04:36:47.210Z,8
2023-04-10T04:38:01.310Z,8
2023-04-10T04:39:15.461Z,8
2023-04-10T04:41:43.754Z,8
2023-04-10T04:42:57.893Z,9
2023-04-10T04:44:11.965Z,8
2023-04-10T04:45:26.124Z,8
2023-04-10T04:46:41.907Z,8
2023-04-10T04:47:54.523Z,8
2023-04-10T04:49:08.552Z,8
2023-04-10T04:50:22.680Z,8
2023-04-10T04:52:50.896Z,9
2023-04-10T04:54:05.130Z,8
2023-04-10T04:55:19.223Z,8
2023-04-10T04:57:47.564Z,8
2023-04-10T04:59:01.596Z,9
2023-04-10T05:00:15.766Z,8
2023-04-10T05:02:44.152Z,8
2023-04-10T05:03:58.341Z,8
2023-04-10T05:05:12.271Z,8
2023-04-10T05:07:40.493Z,8
2023-04-10T05:08:54.801Z,9
2023-04-10T05:10:08.859Z,9
2023-04-10T05:11:22.978Z,8
2023-04-10T05:13:51.183Z,8
2023-04-10T05:15:05.380Z,9
2023-04-10T05:16:19.552Z,8
2023-04-10T05:18:47.862Z,9
2023-04-10T05:20:01.906Z,9
2023-04-10T05:21:16.013Z,9
2023-04-10T05:23:44.340Z,9
2023-04-10T05:24:58.388Z,9
2023-04-10T05:26:12.525Z,9
2023-04-10T05:28:40.760Z,9
2023-04-10T05:29:55.025Z,8
2023-04-10T05:31:09.224Z,9
2023-04-10T05:32:23.241Z,9
2023-04-10T05:34:51.431Z,9
2023-04-10T05:36:05.669Z,9
2023-04-10T05:37:19.757Z,10
2023-04-10T05:39:47.987Z,9
2023-04-10T05:41:02.271Z,9
2023-04-10T05:42:16.270Z,9
2023-04-10T05:44:44.585Z,9
2023-04-10T05:45:58.771Z,8
2023-04-10T05:47:12.791Z,9
2023-04-10T05:49:41.062Z,9
2023-04-10T05:50:55.199Z,9
2023-04-10T05:52:09.419Z,9
2023-04-10T05:53:23.603Z,9
2023-04-10T05:55:51.755Z,10
2023-04-10T05:57:05.967Z,8
2023-04-10T05:58:20.004Z,8
2023-04-10T06:00:48.268Z,9
2023-04-10T06:02:02.502Z,8
2023-04-10T06:03:16.608Z,9
2023-04-10T06:05:44.847Z,9
2023-04-10T06:06:58.968Z,9
2023-04-10T06:08:13.092Z,9
2023-04-10T06:10:41.310Z,8
2023-04-10T06:11:55.445Z,9
2023-04-10T06:13:11.137Z,8
2023-04-10T06:14:23.720Z,9
2023-04-10T06:16:51.975Z,9
2023-04-10T06:18:06.112Z,8
2023-04-10T06:19:20.228Z,9
2023-04-10T06:21:48.627Z,8
2023-04-10T06:23:02.656Z,9
2023-04-10T06:24:16.827Z,10
2023-04-10T06:26:45.399Z,9
2023-04-10T06:27:59.364Z,9
2023-04-10T06:29:13.346Z,9
2023-04-10T06:32:55.753Z,9
2023-04-10T06:34:09.840Z,8
2023-04-10T06:35:24.051Z,8
2023-04-10T06:37:52.246Z,9
2023-04-10T06:39:06.387Z,9
2023-04-10T06:40:20.580Z,9
2023-04-10T06:42:48.858Z,8
2023-04-10T06:44:03.732Z,8
2023-04-10T06:45:17.046Z,8
2023-04-10T06:47:45.460Z,8
2023-04-10T06:48:59.444Z,8
2023-04-10T06:50:13.918Z,8
2023-04-10T06:52:41.861Z,8
2023-04-10T06:53:55.975Z,8
2023-04-10T06:55:10.107Z,9
2023-04-10T06:56:24.346Z,9
2023-04-10T06:58:52.724Z,9
2023-04-10T07:00:06.713Z,8
2023-04-10T07:01:20.815Z,8
2023-04-10T07:03:49.152Z,8
2023-04-10T07:05:03.201Z,8
2023-04-10T07:06:17.317Z,8
2023-04-10T07:08:45.576Z,8
2023-04-10T07:10:00.009Z,8
2023-04-10T07:11:14.042Z,8
2023-04-10T07:13:42.165Z,8
2023-04-10T07:14:56.251Z,7
2023-04-10T07:16:10.415Z,7
2023-04-10T07:18:38.658Z,8
2023-04-10T07:19:52.779Z,7
2023-04-10T07:21:06.941Z,8
2023-04-10T07:22:21.039Z,7
2023-04-10T07:24:49.320Z,6
2023-04-10T07:26:03.454Z,7
2023-04-10T07:27:17.566Z,7
2023-04-10T07:29:45.908Z,7
2023-04-10T07:31:00.060Z,7
2023-04-10T07:32:14.400Z,7
2023-04-10T07:34:42.366Z,8
2023-04-10T07:35:56.584Z,6
2023-04-10T07:37:10.607Z,7
2023-04-10T07:39:39.035Z,6
2023-04-10T07:40:53.045Z,7
2023-04-10T07:42:07.201Z,7
2023-04-10T07:43:21.284Z,7
2023-04-10T07:45:49.622Z,6
2023-04-10T07:47:03.730Z,6
2023-04-10T07:48:17.823Z,6
2023-04-10T07:50:46.160Z,7
2023-04-10T07:52:00.274Z,6
2023-04-10T07:53:14.393Z,7
2023-04-10T07:55:42.668Z,6
2023-04-10T07:58:10.943Z,6
2023-04-10T07:59:25.028Z,6
2023-04-10T08:00:39.281Z,6
2023-04-10T08:01:53.327Z,6
2023-04-10T08:03:07.817Z,6
2023-04-10T08:04:21.752Z,6
2023-04-10T08:06:49.832Z,6
2023-04-10T08:08:04.077Z,5
2023-04-10T08:09:18.105Z,6
2023-04-10T08:11:46.393Z,6
2023-04-10T08:13:00.477Z,5
2023-04-10T08:14:18.514Z,5
2023-04-10T08:16:42.959Z,5
2023-04-10T08:17:57.076Z,6
2023-04-10T08:19:11.193Z,6
2023-04-10T08:21:39.442Z,6
2023-04-10T08:22:53.680Z,6
2023-04-10T08:24:07.731Z,5
2023-04-10T08:25:21.948Z,5
2023-04-10T08:27:50.098Z,5
2023-04-10T08:29:04.294Z,5
2023-04-10T08:30:18.457Z,5
2023-04-10T08:32:46.686Z,6
2023-04-10T08:34:00.792Z,5
2023-04-10T08:35:14.895Z,5
2023-04-10T08:37:49.749Z,5
2023-04-10T08:38:57.352Z,5
2023-04-10T08:40:11.424Z,5
2023-04-10T08:42:39.710Z,5
2023-04-10T08:43:54.188Z,5
2023-04-10T08:45:08.027Z,4
2023-04-10T08:46:22.170Z,5
2023-04-10T08:48:50.447Z,5
2023-04-10T08:50:04.861Z,5
2023-04-10T08:51:20.053Z,4
2023-04-10T08:53:47.208Z,5
2023-04-10T08:55:01.084Z,4
2023-04-10T08:58:43.410Z,4
2023-04-10T08:59:57.762Z,5
2023-04-10T09:01:11.732Z,4
2023-04-10T09:03:40.143Z,5
2023-04-10T09:04:54.291Z,4
2023-04-10T09:06:08.301Z,5
2023-04-10T09:07:22.381Z,5
2023-04-10T09:09:50.630Z,5
2023-04-10T09:11:04.795Z,4
2023-04-10T09:12:18.925Z,5
2023-04-10T09:14:47.256Z,4
2023-04-10T09:16:01.554Z,5
2023-04-10T09:17:15.421Z,4
2023-04-10T09:19:43.676Z,5
2023-04-10T09:20:57.837Z,4
2023-04-10T09:22:11.956Z,4
2023-04-10T09:23:26.166Z,4
2023-04-10T09:24:40.274Z,4
2023-04-10T09:25:54.442Z,4
2023-04-10T09:27:08.575Z,4
2023-04-10T09:28:22.603Z,5
2023-04-10T09:30:50.977Z,4
2023-04-10T09:32:05.122Z,4
2023-04-10T09:33:19.135Z,4
2023-04-10T09:35:47.457Z,4
2023-04-10T09:37:01.573Z,4
2023-04-10T09:38:15.673Z,4
2023-04-10T09:40:43.990Z,4
2023-04-10T09:41:58.087Z,4
2023-04-10T09:43:12.217Z,4
2023-04-10T09:45:40.479Z,4
2023-04-10T09:46:54.774Z,4
2023-04-10T09:48:08.841Z,4
2023-04-10T09:49:22.881Z,4
2023-04-10T09:51:51.148Z,4
2023-04-10T09:53:05.408Z,4
2023-04-10T09:54:19.493Z,4
2023-04-10T09:56:47.796Z,4
2023-04-10T09:58:01.817Z,4
2023-04-10T09:59:15.960Z,5
2023-04-10T10:01:44.409Z,4
2023-04-10T10:02:58.456Z,4
2023-04-10T10:04:12.546Z,4
2023-04-10T10:06:40.798Z,4
2023-04-10T10:07:54.905Z,4
2023-04-10T10:09:09.058Z,4
2023-04-10T10:10:23.157Z,4
2023-04-10T10:12:51.390Z,4
2023-04-10T10:14:05.542Z,4
2023-04-10T10:15:19.766Z,4
2023-04-10T10:17:48.058Z,4
2023-04-10T10:19:02.086Z,4
2023-04-10T10:20:16.238Z,4
2023-04-10T10:22:44.550Z,4
2023-04-10T10:23:58.690Z,3
2023-04-10T10:25:12.787Z,3
2023-04-10T10:26:26.986Z,4
2023-04-10T10:27:41.091Z,4
2023-04-10T10:28:55.554Z,3
2023-04-10T10:30:25.454Z,3
2023-04-10T10:31:23.475Z,3
2023-04-10T10:33:51.667Z,3
2023-04-10T10:35:05.846Z,3
2023-04-10T10:36:19.967Z,3
2023-04-10T10:38:48.265Z,3
2023-04-10T10:40:02.424Z,3
2023-04-10T10:41:16.495Z,3
2023-04-10T10:43:44.757Z,3
2023-04-10T10:44:59.542Z,3
2023-04-10T10:46:13.160Z,3
2023-04-10T10:48:41.269Z,3
2023-04-10T10:49:55.523Z,2
2023-04-10T10:51:09.622Z,3
2023-04-10T10:52:23.679Z,3
2023-04-10T10:54:59.251Z,3
2023-04-10T10:56:06.125Z,3
2023-04-10T10:57:20.329Z,3
2023-04-10T10:59:48.588Z,3
2023-04-10T11:01:02.696Z,3
2023-04-10T11:02:16.963Z,3
2023-04-10T11:04:45.050Z,3
2023-04-10T11:05:59.207Z,3
2023-04-10T11:07:13.284Z,3
2023-04-10T11:09:41.524Z,3
2023-04-10T11:10:55.756Z,3
2023-04-10T11:12:09.860Z,3
2023-04-10T11:13:24.020Z,3
2023-04-10T11:15:52.312Z,2
2023-04-10T11:17:06.723Z,3
2023-04-10T11:18:20.529Z,3
2023-04-10T11:20:48.756Z,3
2023-04-10T11:22:02.947Z,3
2023-04-10T11:23:17.024Z,3
2023-04-10T11:25:45.390Z,2
2023-04-10T11:26:59.531Z,3
2023-04-10T11:28:13.601Z,3
2023-04-10T11:30:50.036Z,3
2023-04-10T11:32:04.254Z,3
2023-04-10T11:33:18.275Z,2
2023-04-10T11:35:46.727Z,3
2023-04-10T11:37:00.658Z,2
2023-04-10T11:38:14.786Z,2
2023-04-10T11:40:43.118Z,2
2023-04-10T11:41:57.215Z,2
2023-04-10T11:43:11.315Z,2
2023-04-10T11:45:39.714Z,2
2023-04-10T11:46:53.807Z,2
2023-04-10T11:48:08.024Z,3
2023-04-10T11:49:21.985Z,2
2023-04-10T11:51:50.386Z,2
2023-04-10T11:53:04.407Z,2
2023-04-10T11:54:18.635Z,2
2023-04-10T11:56:46.943Z,3
2023-04-10T11:58:00.921Z,2
2023-04-10T11:59:15.396Z,2
2023-04-10T12:01:43.712Z,2
2023-04-10T12:02:57.620Z,2
2023-04-10T12:04:11.728Z,2
2023-04-10T12:06:39.903Z,2
2023-04-10T12:07:53.999Z,3
2023-04-10T12:09:08.196Z,3
2023-04-10T12:10:22.283Z,2
2023-04-10T12:12:50.527Z,2
2023-04-10T12:14:04.665Z,2
2023-04-10T12:15:18.876Z,3
2023-04-10T12:17:47.212Z,2
2023-04-10T12:19:01.187Z,3
2023-04-10T12:20:15.322Z,2
2023-04-10T12:22:43.593Z,3
2023-04-10T12:23:57.733Z,2
2023-04-10T12:25:11.885Z,3
2023-04-10T12:27:40.224Z,3
2023-04-10T12:28:54.691Z,3
2023-04-10T12:30:08.424Z,2
2023-04-10T12:31:22.581Z,3
2023-04-10T12:33:50.824Z,2
2023-04-10T12:35:04.978Z,3
2023-04-10T12:36:19.109Z,3
2023-04-10T12:38:47.387Z,3
2023-04-10T12:40:01.461Z,3
2023-04-10T12:41:15.580Z,3
2023-04-10T12:43:43.868Z,3
2023-04-10T12:44:57.997Z,3
2023-04-10T12:46:12.188Z,3
2023-04-10T12:48:40.381Z,3
2023-04-10T12:49:54.659Z,3
2023-04-10T12:51:08.701Z,3
2023-04-10T12:52:22.819Z,3
2023-04-10T12:54:51.053Z,3
2023-04-10T12:56:05.320Z,3
2023-04-10T12:57:19.359Z,3
2023-04-10T12:59:47.644Z,3
2023-04-10T13:01:01.769Z,3
2023-04-10T13:02:15.963Z,3
2023-04-10T13:04:44.326Z,3
2023-04-10T13:05:58.345Z,3
2023-04-10T13:07:12.432Z,3
2023-04-10T13:09:40.714Z,3
2023-04-10T13:10:54.824Z,3
2023-04-10T13:12:08.927Z,3
2023-04-10T13:13:23.076Z,3
2023-04-10T13:15:51.390Z,3
2023-04-10T13:17:05.485Z,3
2023-04-10T13:18:19.700Z,3
2023-04-10T13:20:47.971Z,3
2023-04-10T13:22:02.063Z,3
2023-04-10T13:23:16.153Z,2
2023-04-10T13:25:44.416Z,2
2023-04-10T13:26:58.541Z,3
2023-04-10T13:28:12.666Z,3
2023-04-10T13:30:40.973Z,3
2023-04-10T13:31:55.158Z,2
2023-04-10T13:33:09.222Z,2
2023-04-10T13:34:23.622Z,2
2023-04-10T13:36:51.678Z,2
2023-04-10T13:38:05.809Z,2
2023-04-10T13:39:19.889Z,2
2023-04-10T13:41:48.157Z,2
2023-04-10T13:43:02.615Z,2
2023-04-10T13:44:16.393Z,3
2023-04-10T13:46:44.814Z,2
2023-04-10T13:47:58.908Z,3
2023-04-10T13:49:12.981Z,3
2023-04-10T13:51:41.191Z,3
2023-04-10T13:52:55.338Z,3
2023-04-10T13:54:09.510Z,2
2023-04-10T13:55:23.631Z,2
2023-04-10T13:57:51.903Z,2
2023-04-10T13:59:06.010Z,2
2023-04-10T14:00:20.173Z,3
2023-04-10T14:02:48.584Z,2
2023-04-10T14:04:02.670Z,2
2023-04-10T14:05:16.984Z,2
2023-04-10T14:07:44.976Z,2
2023-04-10T14:08:59.143Z,2
2023-04-10T14:10:13.264Z,2
2023-04-10T14:12:41.450Z,2
2023-04-10T14:13:55.652Z,2
2023-04-10T14:15:09.817Z,2
2023-04-10T14:16:23.975Z,2
2023-04-10T14:18:52.209Z,2
2023-04-10T14:20:06.441Z,2
2023-04-10T14:21:20.842Z,2
2023-04-10T14:23:48.796Z,2
2023-04-10T14:25:12.419Z,3
2023-04-10T14:26:16.971Z,3
2023-04-10T14:28:45.274Z,3
2023-04-10T14:29:59.444Z,2
2023-04-10T14:31:13.583Z,2
2023-04-10T14:33:41.757Z,3
2023-04-10T14:34:55.893Z,2
2023-04-10T14:36:10.087Z,3
2023-04-10T14:37:24.174Z,3
2023-04-10T14:39:52.454Z,5
2023-04-10T14:41:06.596Z,3
2023-04-10T14:42:20.701Z,3
2023-04-10T14:44:48.980Z,2
2023-04-10T14:46:03.194Z,2
2023-04-10T14:47:17.207Z,3
2023-04-10T14:49:45.564Z,2
2023-04-10T14:50:59.645Z,3
2023-04-10T14:52:13.825Z,3
2023-04-10T14:54:42.030Z,2
2023-04-10T14:55:56.236Z,2
2023-04-10T14:57:10.339Z,2
2023-04-10T14:58:24.527Z,2
2023-04-10T15:00:52.796Z,2
2023-04-10T15:02:06.924Z,2
2023-04-10T15:03:23.096Z,2
2023-04-10T15:05:49.272Z,2
2023-04-10T15:07:03.374Z,2
2023-04-10T15:08:17.498Z,2
2023-04-10T15:10:45.791Z,2
2023-04-10T15:11:59.944Z,2
2023-04-10T15:13:14.138Z,2
2023-04-10T15:15:42.325Z,2
2023-04-10T15:16:56.505Z,2
2023-04-10T15:18:10.619Z,2
2023-04-10T15:20:38.829Z,2
2023-04-10T15:21:52.950Z,2
2023-04-10T15:23:07.099Z,2
2023-04-10T15:24:21.197Z,2
2023-04-10T15:26:49.569Z,2
2023-04-10T15:28:03.723Z,2
2023-04-10T15:29:17.793Z,2
2023-04-10T15:30:31.945Z,2
2023-04-10T15:31:46.120Z,2
2023-04-10T15:33:00.268Z,2
2023-04-10T15:34:14.433Z,2
2023-04-10T15:36:42.560Z,2
2023-04-10T15:37:56.701Z,2
2023-04-10T15:39:10.800Z,2
2023-04-10T15:41:39.077Z,2
2023-04-10T15:42:53.265Z,2
2023-04-10T15:44:07.424Z,2
2023-04-10T15:45:21.476Z,2
2023-04-10T15:47:49.840Z,2
2023-04-10T15:49:03.966Z,2
2023-04-10T15:50:18.039Z,2
2023-04-10T15:52:46.389Z,2
2023-04-10T15:54:00.486Z,2
2023-04-10T15:55:14.736Z,2
2023-04-10T15:57:42.825Z,2
2023-04-10T15:58:56.979Z,2
2023-04-10T16:00:11.077Z,2
2023-04-10T16:02:39.664Z,2
2023-04-10T16:03:53.954Z,2
2023-04-10T16:05:07.774Z,2
2023-04-10T16:06:21.760Z,2
2023-04-10T16:08:50.066Z,2
2023-04-10T16:10:04.216Z,2
2023-04-10T16:11:18.283Z,2
2023-04-10T16:13:46.604Z,2
2023-04-10T16:15:00.666Z,2
2023-04-10T16:16:14.917Z,2
2023-04-10T16:18:43.520Z,2
2023-04-10T16:19:57.227Z,2
2023-04-10T16:21:11.324Z,2
2023-04-10T16:23:39.642Z,2
2023-04-10T16:24:53.866Z,2
2023-04-10T16:26:07.979Z,2
2023-04-10T16:27:22.041Z,2
2023-04-10T16:29:50.286Z,2
2023-04-10T16:31:04.551Z,2
2023-04-10T16:32:18.583Z,2
2023-04-10T16:34:46.859Z,2
2023-04-10T16:36:01.002Z,2
2023-04-10T16:37:15.071Z,2
2023-04-10T16:39:43.372Z,2
2023-04-10T16:40:57.487Z,2
2023-04-10T16:42:11.592Z,2
2023-04-10T16:44:39.953Z,3
2023-04-10T16:45:54.087Z,3
2023-04-10T16:47:08.230Z,2
2023-04-10T16:48:22.309Z,2
2023-04-10T16:50:50.547Z,3
2023-04-10T16:52:04.801Z,3
2023-04-10T16:53:18.834Z,2
2023-04-10T16:55:47.105Z,2
2023-04-10T16:57:01.201Z,2
2023-04-10T16:58:15.355Z,2
2023-04-10T17:00:43.661Z,2
2023-04-10T17:01:57.793Z,2
2023-04-10T17:03:11.934Z,2
2023-04-10T17:05:40.198Z,2
2023-04-10T17:06:54.306Z,2
2023-04-10T17:08:08.452Z,2
2023-04-10T17:09:22.539Z,3
2023-04-10T17:11:50.831Z,2
2023-04-10T17:13:05.010Z,2
2023-04-10T17:14:19.150Z,2
2023-04-10T17:16:47.486Z,2
2023-04-10T17:18:01.508Z,2
2023-04-10T17:19:15.587Z,3
2023-04-10T17:21:43.980Z,2
2023-04-10T17:22:58.028Z,3
2023-04-10T17:24:12.151Z,2
2023-04-10T17:26:40.407Z,3
2023-04-10T17:27:54.650Z,2
2023-04-10T17:29:08.787Z,2
2023-04-10T17:30:22.831Z,2
2023-04-10T17:32:51.150Z,2
2023-04-10T17:34:05.213Z,2
2023-04-10T17:35:19.392Z,3
2023-04-10T17:39:01.770Z,2
2023-04-10T17:40:15.912Z,3
2023-04-10T17:42:44.148Z,2
2023-04-10T17:43:58.279Z,3
2023-04-10T17:45:12.423Z,2
2023-04-10T17:47:40.761Z,2
2023-04-10T17:48:56.899Z,2
2023-04-10T17:50:08.967Z,2
2023-04-10T17:51:23.211Z,2
2023-04-10T17:53:51.337Z,2
2023-04-10T17:55:05.491Z,2
2023-04-10T17:56:19.754Z,2
2023-04-10T17:58:48.012Z,2
2023-04-10T18:00:02.044Z,2
2023-04-10T18:01:16.196Z,2
2023-04-10T18:03:44.471Z,2
2023-04-10T18:04:58.546Z,3
2023-04-10T18:06:12.677Z,2
2023-04-10T18:08:40.917Z,2
2023-04-10T18:09:55.259Z,2
2023-04-10T18:11:09.262Z,2
2023-04-10T18:12:23.392Z,2
2023-04-10T18:14:51.597Z,2
2023-04-10T18:16:05.808Z,2
2023-04-10T18:17:19.940Z,2
2023-04-10T18:19:48.224Z,2
2023-04-10T18:21:02.277Z,2
2023-04-10T18:22:16.408Z,3
2023-04-10T18:24:44.669Z,2
2023-04-10T18:25:58.827Z,2
2023-04-10T18:27:12.941Z,2
2023-04-10T18:29:41.183Z,2
2023-04-10T18:30:55.397Z,2
2023-04-10T18:32:09.571Z,2
2023-04-10T18:33:23.646Z,2
2023-04-10T18:35:51.902Z,2
2023-04-10T18:37:07.470Z,2
2023-04-10T18:38:20.175Z,2
2023-04-10T18:40:48.406Z,2
2023-04-10T18:42:02.565Z,3
2023-04-10T18:43:16.711Z,2
2023-04-10T18:45:45.047Z,3
2023-04-10T18:47:04.258Z,3
2023-04-10T18:48:13.309Z,3
2023-04-10T18:50:41.452Z,2
2023-04-10T18:51:55.703Z,3
2023-04-10T18:53:09.736Z,2
2023-04-10T18:54:23.873Z,3
2023-04-10T18:56:52.140Z,3
2023-04-10T18:58:06.304Z,3
2023-04-10T18:59:20.386Z,3
2023-04-10T19:01:48.820Z,3
2023-04-10T19:03:02.942Z,3
2023-04-10T19:04:17.044Z,3
2023-04-10T19:06:45.197Z,3
2023-04-10T19:08:04.270Z,3
2023-04-10T19:09:13.512Z,4
2023-04-10T19:11:41.748Z,3
2023-04-10T19:12:55.933Z,4
2023-04-10T19:14:10.105Z,3
2023-04-10T19:16:38.268Z,3
2023-04-10T19:17:52.446Z,3
2023-04-10T19:19:06.547Z,2
2023-04-10T19:20:50.916Z,3
2023-04-10T19:22:48.958Z,3
2023-04-10T19:24:03.084Z,3
2023-04-10T19:25:17.220Z,2
2023-04-10T19:27:45.490Z,3
2023-04-10T19:28:59.636Z,3
2023-04-10T19:30:13.805Z,3
2023-04-10T19:32:42.086Z,3
2023-04-10T19:33:56.182Z,3
2023-04-10T19:35:10.285Z,3
2023-04-10T19:37:38.648Z,3
2023-04-10T19:38:52.792Z,3
2023-04-10T19:40:06.929Z,3
2023-04-10T19:41:20.914Z,3
2023-04-10T19:43:49.278Z,3
2023-04-10T19:45:03.384Z,3
2023-04-10T19:46:17.601Z,2
2023-04-10T19:48:45.838Z,2
2023-04-10T19:49:59.877Z,3
2023-04-10T19:51:13.994Z,3
2023-04-10T19:53:42.328Z,3
2023-04-10T19:54:56.470Z,3
2023-04-10T19:56:10.535Z,3
2023-04-10T19:57:24.713Z,3
2023-04-10T19:59:52.986Z,3
2023-04-10T20:01:07.082Z,3
2023-04-10T20:02:21.439Z,3
2023-04-10T20:04:49.667Z,3
2023-04-10T20:06:03.611Z,3
2023-04-10T20:07:17.724Z,3
2023-04-10T20:08:31.890Z,3
2023-04-10T20:09:46.051Z,3
2023-04-10T20:11:00.134Z,3
2023-04-10T20:12:14.621Z,3
2023-04-10T20:14:42.536Z,3
2023-04-10T20:15:56.831Z,3
2023-04-10T20:17:10.784Z,3
2023-04-10T20:19:39.046Z,3
2023-04-10T20:20:53.315Z,3
2023-04-10T20:22:07.439Z,3
2023-04-10T20:23:21.432Z,3
2023-04-10T20:25:49.760Z,4
2023-04-10T20:27:03.842Z,4
2023-04-10T20:28:17.994Z,4
2023-04-10T20:30:46.296Z,4
2023-04-10T20:32:00.535Z,4
2023-04-10T20:33:14.743Z,4
2023-04-10T20:35:42.879Z,5
2023-04-10T20:36:57.017Z,5
2023-04-10T20:38:11.034Z,5
2023-04-10T20:39:25.252Z,5
2023-04-10T20:40:39.425Z,5
2023-04-10T20:41:53.451Z,5
2023-04-10T20:43:07.663Z,5
2023-04-10T20:44:21.693Z,5
2023-04-10T20:46:50.197Z,5
2023-04-10T20:48:04.175Z,5
2023-04-10T20:49:18.265Z,5
2023-04-10T20:51:46.545Z,5
2023-04-10T20:53:00.636Z,5
2023-04-10T20:54:14.882Z,5
2023-04-10T20:56:44.047Z,5
2023-04-10T20:57:57.216Z,5
2023-04-10T20:59:11.464Z,5
2023-04-10T21:01:39.725Z,6
2023-04-10T21:02:53.973Z,6
2023-04-10T21:04:07.875Z,6
2023-04-10T21:05:22.055Z,6
2023-04-10T21:07:50.215Z,7
2023-04-10T21:09:04.390Z,7
2023-04-10T21:10:18.770Z,6
2023-04-10T21:12:46.880Z,4
2023-04-10T21:14:00.904Z,4
2023-04-10T21:15:15.121Z,3
2023-04-10T21:17:43.373Z,3
2023-04-10T21:18:57.456Z,3
2023-04-10T21:20:11.573Z,3
2023-04-10T21:22:39.865Z,3
2023-04-10T21:23:54.073Z,3
2023-04-10T21:25:08.135Z,3
2023-04-10T21:26:22.223Z,3
2023-04-10T21:28:50.483Z,4
2023-04-10T21:30:04.658Z,4
2023-04-10T21:31:19.049Z,4
2023-04-10T21:33:47.161Z,4
2023-04-10T21:35:01.224Z,4
2023-04-10T21:36:15.363Z,5
2023-04-10T21:38:43.714Z,5
2023-04-10T21:39:57.736Z,5
2023-04-10T21:41:11.856Z,5
2023-04-10T21:43:40.116Z,5
2023-04-10T21:44:54.270Z,5
2023-04-10T21:46:08.491Z,5
2023-04-10T21:47:22.517Z,5
2023-04-10T21:49:50.754Z,4
2023-04-10T21:51:05.028Z,5
2023-04-10T21:52:19.041Z,4
2023-04-10T21:54:47.390Z,4
2023-04-10T21:56:01.434Z,4
2023-04-10T21:57:15.553Z,3
2023-04-10T21:59:43.966Z,3
2023-04-10T22:00:58.072Z,4
2023-04-10T22:02:12.173Z,4
2023-04-10T22:04:51.513Z,4
2023-04-10T22:05:54.616Z,3
2023-04-10T22:07:08.637Z,3
2023-04-10T22:08:22.768Z,3
2023-04-10T22:10:51.119Z,3
2023-04-10T22:12:05.246Z,3
2023-04-10T22:13:29.763Z,3
2023-04-10T22:15:47.567Z,3
2023-04-10T22:17:01.796Z,3
2023-04-10T22:18:15.844Z,3
2023-04-10T22:20:44.194Z,3
2023-04-10T22:21:58.306Z,2
2023-04-10T22:23:12.358Z,2
2023-04-10T22:25:40.617Z,2
2023-04-10T22:26:54.878Z,2
2023-04-10T22:28:09.007Z,2
2023-04-10T22:29:23.144Z,2
2023-04-10T22:31:51.329Z,2
2023-04-10T22:33:05.533Z,2
2023-04-10T22:34:19.576Z,2
2023-04-10T22:36:48.166Z,3
2023-04-10T22:38:01.990Z,2
2023-04-10T22:39:16.073Z,3
2023-04-10T22:41:44.413Z,2
2023-04-10T22:42:58.544Z,2
2023-04-10T22:44:12.661Z,2
2023-04-10T22:46:40.923Z,2
2023-04-10T22:47:55.122Z,2
2023-04-10T22:49:09.238Z,2
2023-04-10T22:50:23.343Z,2
2023-04-10T22:52:51.559Z,2
2023-04-10T22:54:05.702Z,2
2023-04-10T22:55:19.832Z,2
2023-04-10T22:57:48.245Z,3
2023-04-10T22:59:02.222Z,3
2023-04-10T23:00:16.380Z,2
2023-04-10T23:02:44.682Z,2
2023-04-10T23:03:58.805Z,2
2023-04-10T23:05:12.952Z,3
2023-04-10T23:07:41.127Z,2
2023-04-10T23:08:55.567Z,3
2023-04-10T23:10:09.449Z,2
2023-04-10T23:11:23.623Z,3
2023-04-10T23:13:51.882Z,2
2023-04-10T23:15:05.992Z,3
2023-04-10T23:16:20.106Z,6
2023-04-10T23:18:48.368Z,6
2023-04-10T23:20:02.526Z,5
2023-04-10T23:21:16.641Z,4
2023-04-10T23:23:44.892Z,3
2023-04-10T23:24:59.144Z,2
2023-04-10T23:26:13.256Z,5
2023-04-10T23:28:41.429Z,3
2023-04-10T23:29:55.613Z,2
2023-04-10T23:31:09.758Z,2
2023-04-10T23:32:23.898Z,2
2023-04-10T23:34:52.110Z,3
2023-04-10T23:36:06.309Z,2
2023-04-10T23:37:20.327Z,2
2023-04-10T23:39:48.705Z,1
2023-04-10T23:41:02.778Z,1
2023-04-10T23:42:16.894Z,2
2023-04-10T23:44:45.192Z,1
2023-04-10T23:45:59.387Z,1
2023-04-10T23:47:13.527Z,1
2023-04-10T23:49:41.719Z,1
2023-04-10T23:50:55.856Z,1